Date,TemperatureHighF,TemperatureAvgF,TemperatureLowF,DewpointHighF,DewpointAvgF,DewpointLowF,HumidityHigh,HumidityAvg,HumidityLow,PressureMaxIn,PressureMinIn,WindSpeedMaxMPH,WindSpeedAvgMPH,GustSpeedMaxMPH,PrecipitationSumIn
2013-1-1,49,47,44,-100,-100,-100,0,0,100,30.06,29.89,19,12,21,0.00
2013-1-2,44,39,38,-100,-100,-100,0,0,100,30.21,29.95,19,12,21,0.00
2013-1-3,39,36,35,-100,-100,-100,0,0,100,30.25,30.17,16,9,18,0.00
2013-1-4,45,40,35,-100,-100,-100,0,0,100,30.25,30.13,21,12,23,0.00
2013-1-5,44,41,38,-100,-100,-100,0,0,100,30.39,30.20,20,10,23,0.00
2013-1-6,47,44,41,-100,-100,-100,0,0,100,30.27,30.05,14,-14,15,0.00
2013-1-7,45,44,43,-100,-100,-100,0,0,100,30.45,30.12,23,12,26,0.00
2013-1-8,48,45,41,-100,-100,-100,0,0,100,30.48,30.37,10,-58,11,0.00
2013-1-9,64,53,44,-100,-100,-100,0,0,100,30.42,30.27,17,-14,19,0.00
2013-1-10,59,49,45,-100,-100,-100,0,0,100,30.57,30.35,23,-10,25,0.00
2013-1-11,59,50,45,-100,-100,-100,0,0,100,30.50,30.11,17,8,19,0.00
2013-1-12,56,50,46,-100,-100,-100,0,0,100,30.16,30.09,17,-7,18,0.00
2013-1-13,62,52,46,-100,-100,-100,0,0,100,30.15,30.07,15,7,16,0.00
2013-1-14,62,55,46,-100,-100,-100,0,0,100,30.19,30.09,28,12,31,0.00
2013-1-15,47,45,44,-100,-100,-100,0,0,100,30.25,30.09,31,18,34,0.00
2013-1-16,50,44,41,-100,-100,-100,0,0,100,30.10,29.94,20,10,23,0.00
2013-1-17,46,43,37,-100,-100,-100,0,0,100,30.09,29.96,30,11,35,0.00
2013-1-18,42,38,35,-100,-100,-100,0,0,100,30.54,30.02,28,17,34,0.00
2013-1-19,55,44,36,-100,-100,-100,0,0,100,30.51,30.11,16,10,19,0.00
2013-1-20,57,50,45,-100,-100,-100,0,0,100,30.12,29.88,23,17,28,0.00
2013-1-21,53,46,43,-100,-100,-100,0,0,100,30.09,29.79,26,13,30,0.00
2013-1-22,42,19,29,-100,-100,-100,0,0,100,30.25,29.88,26,18,29,0.00
2013-1-23,33,12,25,-100,-100,-100,0,0,100,30.37,30.12,18,11,21,0.00
2013-1-24,36,16,26,-100,-100,-100,0,0,100,30.52,29.96,33,22,40,0.00
2013-1-25,30,8,26,-100,-100,-100,0,0,100,30.52,30.08,22,10,27,0.00
2013-1-26,35,17,27,-100,-100,-100,0,0,100,30.42,30.08,23,10,26,0.00
2013-1-27,35,26,31,-100,-100,-100,0,0,100,30.60,30.41,20,3,23,0.00
2013-1-28,52,41,34,-100,-100,-100,0,0,100,30.53,30.13,26,13,31,0.00
2013-1-29,62,53,46,-100,-100,-100,0,0,100,30.16,30.07,28,0,33,0.00
2013-1-30,71,64,56,-100,-100,-100,0,0,100,30.08,29.46,40,24,57,0.00
2013-1-31,67,48,41,-100,-100,-100,0,0,100,29.96,29.45,37,26,57,0.00
2013-2-1,43,34,30,-100,-100,-100,0,0,100,30.36,29.82,39,22,44,0.00
2013-2-2,39,20,26,-100,-100,-100,0,0,100,30.40,30.01,16,8,19,0.00
2013-2-3,42,38,36,-100,-100,-100,0,0,100,30.02,29.83,24,-3,28,0.00
2013-2-4,43,37,33,-100,-100,-100,0,0,100,30.14,29.92,23,13,28,0.00
2013-2-5,54,46,40,-100,-100,-100,0,0,100,29.99,29.85,21,14,25,0.00
2013-2-6,48,44,42,-100,-100,-100,0,0,100,30.33,29.92,15,9,17,0.00
2013-2-7,47,43,40,-100,-100,-100,0,0,100,30.40,30.11,23,16,28,0.00
2013-2-8,48,45,42,-100,-100,-100,0,0,100,30.12,29.62,37,26,47,0.00
2013-2-9,45,22,36,-100,-100,-100,0,0,100,30.37,29.87,36,24,44,0.00
2013-2-10,44,34,34,-100,-100,-100,0,0,100,30.50,30.31,22,12,25,0.00
2013-2-11,61,39,44,-100,-100,-100,0,0,100,30.32,29.79,29,19,33,0.00
2013-2-12,58,51,47,-100,-100,-100,0,0,100,30.01,29.80,23,12,26,0.00
2013-2-13,51,46,44,-100,-100,-100,0,0,100,29.95,29.56,18,0,21,0.00
2013-2-14,44,42,39,-100,-100,-100,0,0,100,30.08,29.71,24,12,29,0.00
2013-2-15,51,44,40,-100,-100,-100,0,0,100,30.08,29.92,14,8,17,0.00
2013-2-16,48,39,33,-100,-100,-100,0,0,100,29.97,29.75,37,24,42,0.00
2013-2-17,34,20,30,-100,-100,-100,0,0,100,30.22,29.76,34,27,38,0.00
2013-2-18,42,24,28,-100,-100,-100,0,0,100,30.41,30.22,27,14,33,0.00
2013-2-19,58,48,39,-100,-100,-100,0,0,100,30.27,29.80,28,17,35,0.00
2013-2-20,47,42,36,-100,-100,-100,0,0,100,30.13,29.86,27,18,30,0.00
2013-2-21,41,26,30,-100,-100,-100,0,0,100,30.28,30.12,24,15,27,0.00
2013-2-22,43,38,35,-100,-100,-100,0,0,100,30.37,30.15,23,13,26,0.00
2013-2-23,48,43,41,-100,-100,-100,0,0,100,30.16,29.80,19,11,21,0.00
2013-2-24,50,44,40,-100,-100,-100,0,0,100,30.06,29.76,35,-4,40,0.00
2013-2-25,40,38,36,-100,-100,-100,0,0,100,30.23,30.06,30,14,34,0.00
2013-2-26,60,46,39,-100,-100,-100,0,0,100,30.18,29.54,31,18,37,0.00
2013-2-27,60,52,45,-100,-100,-100,0,0,100,29.71,29.54,21,11,23,0.00
2013-2-28,49,44,41,-100,-100,-100,0,0,100,29.75,29.64,19,-536,22,0.00
2013-3-1,44,42,39,-100,-100,-100,0,0,100,29.86,29.75,19,-459,21,0.00
2013-3-2,42,38,37,-100,-100,-100,0,0,100,29.88,29.80,20,14,23,0.00
2013-3-3,40,37,33,-100,-100,-100,0,0,100,29.90,29.80,28,18,31,0.00
2013-3-4,44,38,32,-100,-100,-100,0,0,100,30.04,29.90,26,17,30,0.00
2013-3-5,42,40,39,-100,-100,-100,0,0,100,30.10,29.72,30,9,33,0.00
2013-3-6,48,41,37,-100,-100,-100,0,0,100,29.83,29.29,54,30,62,0.00
2013-3-7,45,42,41,-100,-100,-100,0,0,100,30.11,29.83,38,-34,48,0.00
2013-3-8,46,42,39,-100,-100,-100,0,0,100,30.19,30.07,33,24,38,0.00
2013-3-9,47,43,41,-100,-100,-100,0,0,100,30.30,30.17,26,1,31,0.00
2013-3-10,43,42,40,-100,-100,-100,0,0,100,30.34,30.28,14,-95,16,0.00
2013-3-11,57,50,43,-100,-100,-100,0,0,100,30.29,30.02,18,9,25,0.00
2013-3-12,65,56,47,-100,-100,-100,0,0,100,30.03,29.72,28,9,35,0.00
2013-3-13,51,46,43,-100,-100,-100,0,0,100,30.03,29.88,33,5,37,0.00
2013-3-14,48,42,37,-100,-100,-100,0,0,100,30.16,30.02,28,19,33,0.00
2013-3-15,56,47,39,-100,-100,-100,0,0,100,30.13,29.84,21,12,25,0.00
2013-3-16,61,52,47,-100,-100,-100,0,0,100,29.88,29.61,24,4,32,0.00
2013-3-17,50,41,38,-100,-100,-100,0,0,100,30.24,29.81,27,16,32,0.00
2013-3-18,46,42,38,-100,-100,-100,0,0,100,30.25,29.87,28,2,33,0.00
2013-3-19,60,47,41,-100,-100,-100,0,0,100,29.93,29.77,23,10,30,0.00
2013-3-20,54,48,45,-100,-100,-100,0,0,100,30.06,29.80,27,13,33,0.00
2013-3-21,45,39,34,-100,-100,-100,0,0,100,29.91,29.67,36,20,41,0.00
2013-3-22,48,38,33,-100,-100,-100,0,0,100,30.02,29.91,29,15,34,0.00
2013-3-23,49,43,40,-100,-100,-100,0,0,100,30.05,29.91,17,-19,18,0.00
2013-3-24,43,40,34,-100,-100,-100,0,0,100,29.98,29.58,36,18,40,0.00
2013-3-25,42,39,36,-100,-100,-100,0,0,100,29.70,29.44,32,21,39,0.00
2013-3-26,46,43,39,-100,-100,-100,0,0,100,29.99,29.70,17,11,20,0.00
2013-3-27,49,44,41,-100,-100,-100,0,0,100,30.13,29.99,20,14,23,0.00
2013-3-28,47,44,40,-100,-100,-100,0,0,100,30.22,30.10,20,16,23,0.00
2013-3-29,51,46,42,-100,-100,-100,0,0,100,30.27,30.17,19,10,24,0.00
2013-3-30,53,47,45,-100,-100,-100,0,0,100,30.22,30.13,14,-7,17,0.00
2013-3-31,62,54,49,-100,-100,-100,0,0,100,30.16,29.78,19,12,22,0.00
2013-4-1,67,56,49,-100,-100,-100,0,0,100,29.94,29.74,21,6,23,0.00
2013-4-2,51,47,44,-100,-100,-100,0,0,100,30.13,29.94,21,11,24,0.00
2013-4-3,49,45,43,-100,-100,-100,0,0,100,30.36,30.12,16,9,19,0.00
2013-4-4,46,42,40,-100,-100,-100,0,0,100,30.41,29.98,26,13,30,0.00
2013-4-5,54,47,43,-100,-100,-100,0,0,100,30.01,29.76,32,-11,40,0.00
2013-4-6,52,46,43,-100,-100,-100,0,0,100,30.33,29.98,22,13,26,0.00
2013-4-7,66,54,44,-100,-100,-100,0,0,100,30.33,30.10,20,10,24,0.00
2013-4-8,74,64,56,-100,-100,-100,0,0,100,30.13,30.03,21,16,26,0.00
2013-4-9,78,67,61,-100,-100,-100,0,0,100,30.13,30.01,24,14,28,0.00
2013-4-10,82,72,64,-100,-100,-100,0,0,100,30.04,29.88,22,16,25,0.00
2013-4-11,80,71,62,-100,-100,-100,0,0,100,29.95,29.80,24,17,29,0.00
2013-4-12,74,70,67,-100,-100,-100,0,0,100,29.82,29.60,30,20,38,0.00
2013-4-13,68,56,53,-100,-100,-100,0,0,100,29.96,29.63,36,16,43,0.00
2013-4-14,61,57,54,-100,-100,-100,0,0,100,30.15,29.96,23,10,26,0.00
2013-4-15,60,56,55,-100,-100,-100,0,0,100,30.26,30.10,20,11,23,0.00
2013-4-16,65,61,55,-100,-100,-100,0,0,100,30.32,30.22,17,9,20,0.00
2013-4-17,70,62,60,-100,-100,-100,0,0,100,30.22,30.12,18,11,19,0.00
2013-4-18,72,64,58,-100,-100,-100,0,0,100,30.24,30.08,20,9,22,0.00
2013-4-19,79,71,64,-100,-100,-100,0,0,100,30.09,29.75,34,20,43,0.00
2013-4-20,66,56,49,-100,-100,-100,0,0,100,30.27,29.78,36,14,41,0.00
2013-4-21,55,49,46,-100,-100,-100,0,0,100,30.55,30.27,29,5,33,0.00
2013-4-22,51,49,46,-100,-100,-100,0,0,100,30.53,30.27,32,26,38,0.00
2013-4-23,53,51,49,-100,-100,-100,0,0,100,30.27,30.13,30,4,35,0.00
2013-4-24,72,59,47,-100,-100,-100,0,0,100,30.16,29.93,23,13,27,0.00
2013-4-25,65,56,51,-100,-100,-100,0,0,100,30.30,29.98,33,17,37,0.00
2013-4-26,57,54,50,-100,-100,-100,0,0,100,30.44,30.28,15,8,17,0.00
2013-4-27,59,57,55,-100,-100,-100,0,0,100,30.42,30.32,14,6,15,0.00
2013-4-28,59,57,54,-100,-100,-100,0,0,100,30.32,30.14,17,8,19,0.00
2013-4-29,60,59,57,-100,-100,-100,0,0,100,30.15,30.00,16,8,22,0.00
2013-4-30,59,57,55,-100,-100,-100,0,0,100,30.15,30.02,28,14,33,0.00
2013-5-1,58,56,54,-100,-100,-100,0,0,100,30.35,30.15,30,24,37,0.00
2013-5-2,58,56,53,-100,-100,-100,0,0,100,30.38,30.29,25,18,28,0.00
2013-5-3,58,54,52,-100,-100,-100,0,0,100,30.32,30.23,32,24,37,0.00
2013-5-4,55,53,50,-100,-100,-100,0,0,100,30.26,30.14,28,24,32,0.00
2013-5-5,54,53,52,-100,-100,-100,0,0,100,30.15,30.09,29,25,33,0.00
2013-5-6,62,58,54,-100,-100,-100,0,0,100,30.09,29.97,28,18,31,0.00
2013-5-7,67,61,59,-100,-100,-100,0,0,100,29.98,29.87,24,12,26,0.00
2013-5-8,65,61,58,-100,-100,-100,0,0,100,30.02,29.93,16,8,19,0.00
2013-5-9,70,63,58,-100,-100,-100,0,0,100,30.04,29.93,15,9,16,0.00
2013-5-10,82,70,65,-100,-100,-100,0,0,100,30.04,29.94,19,11,23,0.00
2013-5-11,80,73,69,-100,-100,-100,0,0,100,29.96,29.76,24,18,32,0.00
2013-5-12,70,64,60,-100,-100,-100,0,0,100,30.01,29.74,25,-3,31,0.00
2013-5-13,63,59,57,-100,-100,-100,0,0,100,30.13,30.01,22,14,26,0.00
2013-5-14,63,57,55,-100,-100,-100,0,0,100,30.23,30.10,21,12,25,0.00
2013-5-15,83,70,60,-100,-100,-100,0,0,100,30.11,29.80,24,18,30,0.00
2013-5-16,84,70,71,-100,-100,-100,0,0,100,29.91,29.80,27,15,33,0.00
2013-5-17,74,68,66,-100,-100,-100,0,0,100,30.15,29.91,16,9,17,0.00
2013-5-18,69,66,61,-100,-100,-100,0,0,100,30.22,30.13,20,10,23,0.00
2013-5-19,72,69,67,-100,-100,-100,0,0,100,30.19,30.10,14,7,17,0.00
2013-5-20,77,70,69,-100,-100,-100,0,0,100,30.15,30.04,21,9,29,0.00
2013-5-21,76,71,69,-100,-100,-100,0,0,100,30.05,29.94,15,10,21,0.00
2013-5-22,81,74,69,-100,-100,-100,0,0,100,30.00,29.92,23,17,27,0.00
2013-5-23,74,71,67,-100,-100,-100,0,0,100,29.98,29.79,22,12,33,0.00
2013-5-24,71,64,56,-100,-100,-100,0,0,100,30.11,29.75,38,21,42,0.00
2013-5-25,66,57,50,-100,-100,-100,0,0,100,30.17,30.09,31,21,38,0.00
2013-5-26,71,62,59,-100,-100,-100,0,0,100,30.24,30.15,23,3,26,0.00
2013-5-27,71,65,59,-100,-100,-100,0,0,100,30.28,30.19,15,8,19,0.00
2013-5-28,81,72,65,-100,-100,-100,0,0,100,30.24,30.13,21,15,25,0.00
2013-5-29,84,75,68,-100,-100,-100,0,0,100,30.20,30.14,19,15,24,0.00
2013-5-30,82,74,68,-100,-100,-100,0,0,100,30.25,30.16,20,11,26,0.00
2013-5-31,85,76,71,-100,-100,-100,0,0,100,30.22,30.09,18,12,22,0.00
2013-6-1,85,78,71,-100,-100,-100,0,0,100,30.12,30.00,23,13,26,0.00
2013-6-2,84,78,71,-100,-100,-100,0,0,100,30.03,29.89,23,18,27,0.00
2013-6-3,77,74,71,-100,-100,-100,0,0,100,29.92,29.82,26,14,28,0.00
2013-6-4,72,69,65,-100,-100,-100,0,0,100,30.14,29.90,25,12,29,0.00
2013-6-5,69,67,65,-100,-100,-100,0,0,100,30.17,30.10,15,-7,16,0.00
2013-6-6,73,69,66,-100,-100,-100,0,0,100,30.10,29.88,17,10,21,0.00
2013-6-7,82,73,67,-100,-100,-100,0,0,100,29.88,29.45,38,15,45,0.00
2013-6-8,77,72,68,-100,-100,-100,0,0,100,30.09,29.71,27,10,33,0.00
2013-6-9,76,72,70,-100,-100,-100,0,0,100,30.18,30.09,16,8,18,0.00
2013-6-10,81,75,72,-100,-100,-100,0,0,100,30.11,29.89,26,13,34,0.00
2013-6-11,80,76,72,-100,-100,-100,0,0,100,29.90,29.80,26,17,34,0.00
2013-6-12,86,79,73,-100,-100,-100,0,0,100,29.92,29.82,16,10,18,0.00
2013-6-13,91,81,71,-100,-100,-100,0,0,100,29.83,29.49,47,16,59,0.00
2013-6-14,73,68,62,-100,-100,-100,0,0,100,29.96,29.60,32,19,36,0.00
2013-6-15,77,71,67,-100,-100,-100,0,0,100,30.08,29.96,21,10,23,0.00
2013-6-16,83,76,71,-100,-100,-100,0,0,100,30.06,29.95,26,17,30,0.00
2013-6-17,82,76,73,-100,-100,-100,0,0,100,30.02,29.93,25,14,29,0.00
2013-6-18,80,74,68,-100,-100,-100,0,0,100,29.95,29.75,28,12,38,0.00
2013-6-19,71,68,66,-100,-100,-100,0,0,100,30.14,29.79,22,14,24,0.00
2013-6-20,69,67,66,-100,-100,-100,0,0,100,30.27,30.14,16,13,18,0.00
2013-6-22,73,72,70,-100,-100,-100,0,0,100,30.24,30.17,20,12,21,0.00
2013-6-23,82,76,73,-100,-100,-100,0,0,100,30.20,30.11,34,10,42,0.00
2013-6-28,89,80,75,-100,-100,-100,0,0,100,29.71,29.53,25,18,31,0.00
2013-6-29,81,76,72,-100,-100,-100,0,0,100,29.73,29.54,30,14,38,0.00
2013-6-30,81,78,75,-100,-100,-100,0,0,100,29.90,29.73,20,14,24,0.00
2013-7-1,80,78,76,-100,-100,-100,0,0,100,30.04,29.89,23,13,27,0.00
2013-7-2,83,76,72,-100,-100,-100,0,0,100,30.22,30.05,23,10,27,0.00
2013-7-3,82,78,73,-100,-100,-100,0,0,100,30.27,30.20,16,9,22,0.00
2013-7-4,83,79,75,-100,-100,-100,0,0,100,30.31,30.22,17,10,21,0.00
2013-7-5,85,80,76,-100,-100,-100,0,0,100,30.29,30.16,17,10,20,0.00
2013-7-6,85,80,76,-100,-100,-100,0,0,100,30.24,30.12,19,12,22,0.00
2013-7-7,87,81,76,-100,-100,-100,0,0,100,30.17,30.04,18,14,23,0.00
2013-7-8,83,78,76,-100,-100,-100,0,0,100,30.14,30.07,21,15,25,0.00
2013-7-9,86,80,76,-100,-100,-100,0,0,100,30.14,30.05,22,12,25,0.00
2013-7-10,86,78,77,-100,-100,-100,0,0,100,30.10,29.93,21,16,24,0.00
2013-7-11,81,77,73,-100,-100,-100,0,0,100,29.96,29.90,20,13,25,0.00
2013-7-12,77,75,73,-100,-100,-100,0,0,100,30.01,29.88,13,-8,16,0.00
2013-7-13,83,79,74,-100,-100,-100,0,0,100,30.26,30.02,19,7,24,0.00
2013-7-14,78,77,75,-100,-100,-100,0,0,100,30.33,30.25,15,8,16,0.00
2013-7-15,86,79,76,-100,-100,-100,0,0,100,30.32,30.21,11,4,13,0.00
2013-7-16,86,81,79,-100,-100,-100,0,0,100,30.22,30.14,15,10,17,0.00
2013-7-17,84,82,80,-100,-100,-100,0,0,100,30.19,30.11,11,6,12,0.00
2013-7-18,87,83,78,-100,-100,-100,0,0,100,30.13,30.04,15,7,18,0.00
2013-7-19,89,85,79,-100,-100,-100,0,0,100,30.06,29.94,22,14,26,0.00
2013-7-20,87,82,78,-100,-100,-100,0,0,100,29.98,29.88,23,18,28,0.00
2013-7-21,85,79,76,-100,-100,-100,0,0,100,29.95,29.88,27,3,37,0.00
2013-7-22,83,78,73,-100,-100,-100,0,0,100,29.93,29.81,21,7,24,0.00
2013-7-23,85,80,76,-100,-100,-100,0,0,100,29.81,29.67,19,13,22,0.00
2013-7-24,85,80,77,-100,-100,-100,0,0,100,29.82,29.68,18,10,20,0.00
2013-7-25,75,73,69,-100,-100,-100,0,0,100,29.99,29.80,26,19,32,0.00
2013-7-26,77,72,69,-100,-100,-100,0,0,100,30.09,29.98,18,7,20,0.00
2013-7-27,79,75,72,-100,-100,-100,0,0,100,30.08,29.96,15,9,18,0.00
2013-7-28,84,78,74,-100,-100,-100,0,0,100,29.98,29.92,18,7,24,0.00
2013-7-29,78,77,76,-100,-100,-100,0,0,100,30.15,29.98,21,11,23,0.00
2013-7-30,78,77,74,-100,-100,-100,0,0,100,30.22,30.14,12,7,14,0.00
2013-7-31,80,77,75,-100,-100,-100,0,0,100,30.16,30.04,12,7,17,0.00
2013-8-1,80,76,70,-100,-100,-100,0,0,100,30.05,29.82,47,13,55,0.00
2013-8-2,82,76,71,-100,-100,-100,0,0,100,29.99,29.86,19,-2,21,0.00
2013-8-3,85,78,71,-100,-100,-100,0,0,100,29.99,29.90,18,9,22,0.00
2013-8-4,78,76,74,-100,-100,-100,0,0,100,30.01,29.85,21,13,24,0.00
2013-8-5,78,75,73,-100,-100,-100,0,0,100,30.09,30.00,17,10,19,0.00
2013-8-6,75,71,67,-100,-100,-100,0,0,100,30.13,30.02,17,10,24,0.00
2013-8-7,83,77,72,-100,-100,-100,0,0,100,30.11,30.04,16,10,19,0.00
2013-8-8,82,78,75,-100,-100,-100,0,0,100,30.08,30.02,15,9,21,0.00
2013-8-9,88,82,77,-100,-100,-100,0,0,100,30.02,29.91,23,16,27,0.00
2013-8-10,83,79,74,-100,-100,-100,0,0,100,30.08,29.98,25,-32,38,0.00
2013-8-11,79,78,77,-100,-100,-100,0,0,100,30.10,30.01,15,8,17,0.00
2013-8-31,85,78,73,-100,-100,-100,0,0,100,29.96,29.85,16,13,21,0.00
2013-9-1,86,66,77,-100,-100,-100,0,0,100,29.88,29.79,17,14,19,0.00
2013-9-2,80,76,74,-100,-100,-100,0,0,100,29.83,29.79,18,13,23,0.00
2013-9-3,80,77,73,-100,-100,-100,0,0,100,29.91,29.79,13,10,14,0.00
2013-9-4,76,74,73,-100,-100,-100,0,0,100,30.07,29.95,21,10,23,0.00
2013-9-5,79,76,73,-100,-100,-100,0,0,100,30.06,30.01,12,7,13,0.00
2013-9-6,75,73,72,-100,-100,-100,0,0,100,30.17,30.06,24,17,31,0.00
2013-12-28,53,40,42,-100,-100,-100,0,0,100,30.38,30.17,12,8,13,0.00
2013-12-29,63,54,49,-100,-100,-100,0,0,100,29.93,29.60,33,19,41,0.00
2013-12-30,50,47,45,-100,-100,-100,0,0,100,30.09,29.89,17,10,20,0.00
2013-12-31,47,41,37,-100,-100,-100,0,0,100,30.22,30.13,18,12,20,0.00
2014-1-1,50,44,40,-100,-100,-100,0,0,100,30.41,30.15,16,10,17,0.00
2014-1-2,47,46,42,-100,-100,-100,0,0,100,30.14,29.60,6,4,9,0.00